createdAt,value
2023-05-05T00:00:02.511Z,19161.2305
2023-05-05T00:01:03.332Z,19158.0000
2023-05-05T00:02:04.914Z,19160.3848
2023-05-05T00:03:06.764Z,19171.2305
2023-05-05T00:04:08.218Z,19169.6152
2023-05-05T00:05:09.886Z,19163.0762
2023-05-05T00:06:11.593Z,19154.3848
2023-05-05T00:07:13.147Z,19154.4609
2023-05-05T00:08:14.794Z,19156.6152
2023-05-05T00:09:16.424Z,19158.2305
2023-05-05T00:10:18.090Z,19157.4609
2023-05-05T00:11:19.760Z,19162.3086
2023-05-05T00:12:21.331Z,19155.2305
2023-05-05T00:13:23.048Z,19159.3848
2023-05-05T00:14:24.659Z,19161.3086
2023-05-05T00:15:26.307Z,19173.7695
2023-05-05T00:16:28.081Z,19174.3848
2023-05-05T00:17:29.610Z,19163.1543
2023-05-05T00:18:31.276Z,19157.7695
2023-05-05T00:19:32.893Z,19159.9238
2023-05-05T00:20:34.583Z,19161.6152
2023-05-05T00:21:36.244Z,19159.7695
2023-05-05T00:22:37.862Z,19162.0000
2023-05-05T00:23:39.472Z,19161.6914
2023-05-05T00:24:41.217Z,19158.4609
2023-05-05T00:25:42.754Z,19162.2305
2023-05-05T00:26:44.490Z,19166.2305
2023-05-05T00:27:46.152Z,19173.0000
2023-05-05T00:28:47.770Z,19171.4609
2023-05-05T00:29:49.331Z,19160.6914
2023-05-05T00:30:51.070Z,19161.5391
2023-05-05T00:31:52.665Z,19161.6152
2023-05-05T00:32:54.467Z,19165.9238
2023-05-05T00:33:55.908Z,19164.4609
2023-05-05T00:34:57.673Z,19167.9238
2023-05-05T00:35:59.281Z,19162.7695
2023-05-05T00:37:00.929Z,19166.1543
2023-05-05T00:38:02.482Z,19164.4609
2023-05-05T00:39:04.207Z,19163.0762
2023-05-05T00:40:05.897Z,19168.4609
2023-05-05T00:41:07.485Z,19174.5391
2023-05-05T00:42:10.493Z,19171.0000
2023-05-05T00:43:10.692Z,19169.5391
2023-05-05T00:44:12.394Z,19166.2305
2023-05-05T00:45:15.004Z,19164.3848
2023-05-05T00:46:15.704Z,19172.1543
2023-05-05T00:47:17.389Z,19175.4609
2023-05-05T00:48:19.078Z,19177.5391
2023-05-05T00:49:20.666Z,19168.8457
2023-05-05T00:50:22.255Z,19170.7695
2023-05-05T00:51:23.991Z,19172.4609
2023-05-05T00:52:25.601Z,19173.8457
2023-05-05T00:53:27.226Z,19178.3848
2023-05-05T00:54:28.824Z,19170.3848
2023-05-05T00:55:30.504Z,19172.4609
2023-05-05T00:56:32.121Z,19172.6152
2023-05-05T00:57:33.830Z,19183.4609
2023-05-05T00:58:35.355Z,19187.3848
2023-05-05T00:59:37.082Z,19183.3848
2023-05-05T01:00:38.679Z,19175.8457
2023-05-05T01:01:41.491Z,19169.9238
2023-05-05T01:02:42.458Z,19177.5391
2023-05-05T01:03:43.845Z,19178.3848
2023-05-05T01:04:46.139Z,19186.2305
2023-05-05T01:05:46.883Z,19197.6152
2023-05-05T01:06:48.494Z,19188.3848
2023-05-05T01:07:50.130Z,19176.3848
2023-05-05T01:08:51.794Z,19174.8457
2023-05-05T01:10:04.201Z,19179.8457
2023-05-05T01:10:55.089Z,19180.7695
2023-05-05T01:11:56.780Z,19184.0000
2023-05-05T01:12:58.436Z,19191.7695
2023-05-05T01:13:59.967Z,19191.6152
2023-05-05T01:15:01.639Z,19187.0762
2023-05-05T01:16:03.337Z,19179.0762
2023-05-05T01:17:04.951Z,19175.0000
2023-05-05T01:18:06.764Z,19175.6914
2023-05-05T01:19:08.200Z,19178.2305
2023-05-05T01:20:10.013Z,19184.4609
2023-05-05T01:21:11.495Z,19191.0762
2023-05-05T01:22:13.129Z,19198.4609
2023-05-05T01:23:14.786Z,19189.3848
2023-05-05T01:24:16.386Z,19177.6914
2023-05-05T01:25:18.073Z,19180.9238
2023-05-05T01:26:19.691Z,19181.5391
2023-05-05T01:27:21.367Z,19178.8457
2023-05-05T01:28:23.021Z,19185.2305
2023-05-05T01:29:24.643Z,19192.9238
2023-05-05T01:30:26.257Z,19194.7695
2023-05-05T01:31:28.032Z,19190.4609
2023-05-05T01:32:29.635Z,19180.0762
2023-05-05T01:33:31.556Z,19181.1543
2023-05-05T01:34:32.892Z,19183.2305
2023-05-05T01:35:34.515Z,19182.8457
2023-05-05T01:36:36.150Z,19187.8457
2023-05-05T01:37:37.868Z,19194.7695
2023-05-05T01:38:39.498Z,19200.7695
2023-05-05T01:39:41.107Z,19184.8457
2023-05-05T01:40:42.766Z,19172.3086
2023-05-05T01:41:44.439Z,19173.9238
2023-05-05T01:42:46.063Z,19184.3086
2023-05-05T01:43:47.739Z,19185.6914
2023-05-05T01:44:49.241Z,19193.0762
2023-05-05T01:45:50.980Z,19202.9238
2023-05-05T01:46:52.560Z,19197.2305
2023-05-05T01:47:54.273Z,19186.6914
2023-05-05T01:48:55.836Z,19179.6914
2023-05-05T01:49:57.605Z,19176.0762
2023-05-05T01:50:59.158Z,19180.3086
2023-05-05T01:52:00.870Z,19181.1543
2023-05-05T01:53:02.473Z,19187.4609
2023-05-05T01:54:04.958Z,19193.1543
2023-05-05T01:55:05.800Z,19192.0000
2023-05-05T01:56:07.365Z,19186.9238
2023-05-05T01:57:09.010Z,19179.6914
2023-05-05T01:58:10.781Z,19182.6152
2023-05-05T01:59:12.334Z,19187.0762
2023-05-05T02:00:13.997Z,19185.0000
2023-05-05T02:01:15.604Z,19190.2305
2023-05-05T02:02:17.266Z,19191.6152
2023-05-05T02:03:18.969Z,19190.3848
2023-05-05T02:04:20.665Z,19181.2305
2023-05-05T02:05:22.198Z,19176.4609
2023-05-05T02:06:23.820Z,19178.3848
2023-05-05T02:07:25.429Z,19184.0762
2023-05-05T02:08:27.185Z,19193.6152
2023-05-05T02:09:28.754Z,19197.4609
2023-05-05T02:10:30.415Z,19200.4609
2023-05-05T02:11:32.004Z,19196.9238
2023-05-05T02:12:33.719Z,19188.5391
2023-05-05T02:13:35.368Z,19180.7695
2023-05-05T02:14:36.997Z,19179.1543
2023-05-05T02:15:38.678Z,19183.1543
2023-05-05T02:16:40.284Z,19189.0762
2023-05-05T02:17:41.939Z,19195.5391
2023-05-05T02:18:43.565Z,19204.8457
2023-05-05T02:19:45.250Z,19196.0000
2023-05-05T02:20:46.860Z,19190.7695
2023-05-05T02:21:48.561Z,19187.7695
2023-05-05T02:22:50.131Z,19181.3086
2023-05-05T02:23:51.922Z,19184.6914
2023-05-05T02:24:53.467Z,19188.6152
2023-05-05T02:25:55.018Z,19195.6152
2023-05-05T02:26:56.816Z,19195.5391
2023-05-05T02:27:58.319Z,19196.3848
2023-05-05T02:29:00.031Z,19194.1543
2023-05-05T02:30:01.654Z,19185.0762
2023-05-05T02:31:03.294Z,19184.6152
2023-05-05T02:32:04.986Z,19183.1543
2023-05-05T02:33:06.715Z,19190.5391
2023-05-05T02:34:08.226Z,19200.9238
2023-05-05T02:35:09.896Z,19206.0000
2023-05-05T02:36:11.536Z,19202.8457
2023-05-05T02:37:13.214Z,19196.2305
2023-05-05T02:38:14.783Z,19189.0000
2023-05-05T02:39:16.426Z,19186.7695
2023-05-05T02:40:18.082Z,19183.6152
2023-05-05T02:41:19.690Z,19186.8457
2023-05-05T02:42:21.923Z,19195.3848
2023-05-05T02:43:23.124Z,19196.9238
2023-05-05T02:44:24.626Z,19202.5391
2023-05-05T02:45:26.855Z,19199.7695
2023-05-05T02:46:27.963Z,19193.1543
2023-05-05T02:47:29.628Z,19190.6914
2023-05-05T02:48:31.148Z,19187.9238
2023-05-05T02:49:32.885Z,19194.4609
2023-05-05T02:50:34.498Z,19197.6152
2023-05-05T02:51:36.232Z,19205.6152
2023-05-05T02:52:37.824Z,19212.3086
2023-05-05T02:53:39.443Z,19206.4609
2023-05-05T02:54:41.436Z,19196.6914
2023-05-05T02:55:42.753Z,19193.8457
2023-05-05T02:56:44.359Z,19195.0000
2023-05-05T02:57:46.001Z,19188.6152
2023-05-05T02:58:47.620Z,19201.6152
2023-05-05T02:59:49.339Z,19198.0762
2023-05-05T03:00:50.953Z,19214.3086
2023-05-05T03:01:52.736Z,19214.5391
2023-05-05T03:02:54.339Z,19209.0762
2023-05-05T03:03:55.976Z,19199.9238
2023-05-05T03:04:57.556Z,19196.0000
2023-05-05T03:05:59.208Z,19199.3086
2023-05-05T03:07:00.767Z,19191.0762
2023-05-05T03:08:02.533Z,19193.8457
2023-05-05T03:09:04.171Z,19203.5391
2023-05-05T03:10:06.203Z,19214.7695
2023-05-05T03:11:07.386Z,19215.0000
2023-05-05T03:12:09.096Z,19207.0000
2023-05-05T03:13:10.858Z,19200.5391
2023-05-05T03:14:12.369Z,19198.3848
2023-05-05T03:15:14.071Z,19190.6914
2023-05-05T03:16:15.780Z,19192.9238
2023-05-05T03:17:17.310Z,19199.3086
2023-05-05T03:18:18.988Z,19203.6914
2023-05-05T03:19:20.617Z,19205.8457
2023-05-05T03:20:22.302Z,19212.6152
2023-05-05T03:21:23.963Z,19213.3848
2023-05-05T03:22:25.536Z,19205.5391
2023-05-05T03:23:27.175Z,19196.6152
2023-05-05T03:24:28.850Z,19197.3848
2023-05-05T03:25:30.557Z,19193.6914
2023-05-05T03:26:32.487Z,19196.5391
2023-05-05T03:27:33.796Z,19202.0000
2023-05-05T03:28:35.363Z,19209.3086
2023-05-05T03:29:37.096Z,19212.5391
2023-05-05T03:30:38.781Z,19212.5391
2023-05-05T03:31:41.102Z,19207.2305
2023-05-05T03:32:42.082Z,19199.8457
2023-05-05T03:33:43.649Z,19195.8457
2023-05-05T03:34:45.245Z,19198.1543
2023-05-05T03:35:46.976Z,19204.5391
2023-05-05T03:36:48.582Z,19200.7695
2023-05-05T03:37:50.971Z,19210.9238
2023-05-05T03:38:51.816Z,19216.8457
2023-05-05T03:39:53.605Z,19208.7695
2023-05-05T03:40:55.195Z,19199.5391
2023-05-05T03:41:56.853Z,19195.4609
2023-05-05T03:42:58.434Z,19191.6914
2023-05-05T03:44:00.185Z,19195.1543
2023-05-05T03:45:01.733Z,19201.6152
2023-05-05T03:46:03.469Z,19214.0762
2023-05-05T03:47:06.000Z,19209.7695
2023-05-05T03:48:06.752Z,19209.3086
2023-05-05T03:49:08.311Z,19199.9238
2023-05-05T03:50:10.170Z,19196.8457
2023-05-05T03:51:11.636Z,19192.9238
2023-05-05T03:52:15.093Z,19190.0762
2023-05-05T03:53:14.976Z,19197.9238
2023-05-05T03:54:16.552Z,19201.6914
2023-05-05T03:55:18.186Z,19206.3848
2023-05-05T03:56:19.873Z,19211.1543
2023-05-05T03:57:21.468Z,19198.0000
2023-05-05T03:58:24.011Z,19194.3848
2023-05-05T03:59:24.741Z,19187.4609
2023-05-05T04:00:26.464Z,19185.0762
2023-05-05T04:01:28.859Z,19189.4609
2023-05-05T04:02:29.855Z,19199.4609
2023-05-05T04:03:31.651Z,19207.6914
2023-05-05T04:04:33.154Z,19209.6152
2023-05-05T04:05:34.653Z,19199.0000
2023-05-05T04:06:36.293Z,19193.1543
2023-05-05T04:07:37.927Z,19185.9238
2023-05-05T04:08:40.068Z,19184.0000
2023-05-05T04:09:41.959Z,19187.5391
2023-05-05T04:10:42.907Z,19195.7695
2023-05-05T04:11:44.545Z,19206.0000
2023-05-05T04:12:46.356Z,19204.7695
2023-05-05T04:13:47.871Z,19199.8457
2023-05-05T04:14:49.537Z,19192.9238
2023-05-05T04:15:51.104Z,19181.1543
2023-05-05T04:16:52.716Z,19184.0000
2023-05-05T04:17:55.142Z,19191.9238
2023-05-05T04:18:56.061Z,19196.0762
2023-05-05T04:19:57.720Z,19201.4609
2023-05-05T04:20:59.306Z,19205.7695
2023-05-05T04:22:00.971Z,19194.4609
2023-05-05T04:23:02.643Z,19188.0762
2023-05-05T04:24:04.278Z,19184.3086
2023-05-05T04:25:05.964Z,19187.6152
2023-05-05T04:26:07.514Z,19197.1543
2023-05-05T04:27:09.192Z,19202.5391
2023-05-05T04:28:10.852Z,19204.0000
2023-05-05T04:29:12.523Z,19200.5391
2023-05-05T04:30:14.143Z,19193.0000
2023-05-05T04:31:15.753Z,19189.4609
2023-05-05T04:32:17.296Z,19185.1543
2023-05-05T04:33:19.018Z,19189.8457
2023-05-05T04:34:20.640Z,19200.0000
2023-05-05T04:35:22.300Z,19203.9238
2023-05-05T04:36:23.936Z,19201.2305
2023-05-05T04:37:25.520Z,19196.3086
2023-05-05T04:38:27.301Z,19193.0762
2023-05-05T04:39:29.535Z,19185.7695
2023-05-05T04:40:30.481Z,19189.7695
2023-05-05T04:41:32.049Z,19199.0762
2023-05-05T04:42:33.701Z,19204.9238
2023-05-05T04:43:35.400Z,19199.3848
2023-05-05T04:44:37.474Z,19201.2305
2023-05-05T04:45:38.705Z,19188.0000
2023-05-05T04:46:40.326Z,19190.0762
2023-05-05T04:47:42.045Z,19195.6152
2023-05-05T04:48:43.590Z,19195.0762
2023-05-05T04:49:45.476Z,19202.3086
2023-05-05T04:50:46.971Z,19200.0762
2023-05-05T04:51:48.547Z,19192.0762
2023-05-05T04:52:51.392Z,19190.2305
2023-05-05T04:53:53.091Z,19186.0762
2023-05-05T04:54:53.632Z,19190.5391
2023-05-05T04:55:55.286Z,19196.9238
2023-05-05T04:56:56.918Z,19200.8457
2023-05-05T04:57:58.584Z,19200.3086
2023-05-05T04:59:00.206Z,19193.3086
2023-05-05T05:00:01.893Z,19192.3086
2023-05-05T05:01:03.525Z,19190.9238
2023-05-05T05:02:05.246Z,19186.0000
2023-05-05T05:03:06.854Z,19194.6914
2023-05-05T05:04:08.422Z,19197.0762
2023-05-05T05:05:10.094Z,19205.5391
2023-05-05T05:06:11.723Z,19202.8457
2023-05-05T05:07:13.336Z,19195.8457
2023-05-05T05:08:15.087Z,19194.3086
2023-05-05T05:09:16.575Z,19180.9238
2023-05-05T05:10:18.342Z,19190.6152
2023-05-05T05:11:19.974Z,19198.2305
2023-05-05T05:12:21.563Z,19205.6152
2023-05-05T05:13:23.269Z,19205.6152
2023-05-05T05:14:24.898Z,19196.7695
2023-05-05T05:15:26.463Z,19200.9238
2023-05-05T05:16:28.351Z,19191.9238
2023-05-05T05:17:29.858Z,19191.6152
2023-05-05T05:18:31.521Z,19192.7695
2023-05-05T05:19:34.069Z,19204.3086
2023-05-05T05:20:35.092Z,19207.2305
2023-05-05T05:21:36.425Z,19199.4609
2023-05-05T05:22:38.009Z,19196.9238
2023-05-05T05:23:39.658Z,19194.8457
2023-05-05T05:24:41.363Z,19188.7695
2023-05-05T05:25:43.897Z,19187.1543
2023-05-05T05:26:44.690Z,19190.4609
2023-05-05T05:27:50.136Z,19203.8457
2023-05-05T05:28:47.856Z,19201.3848
2023-05-05T05:29:49.558Z,19196.0762
2023-05-05T05:30:51.228Z,19193.1543
2023-05-05T05:31:52.803Z,19189.7695
2023-05-05T05:32:54.544Z,19185.0762
2023-05-05T05:33:56.191Z,19190.3848
2023-05-05T05:34:57.678Z,19198.5391
2023-05-05T05:35:59.470Z,19204.6914
2023-05-05T05:37:01.076Z,19193.6152
2023-05-05T05:38:02.700Z,19187.3848
2023-05-05T05:39:04.256Z,19190.7695
2023-05-05T05:40:06.032Z,19188.6152
2023-05-05T05:41:07.535Z,19188.3848
2023-05-05T05:42:10.507Z,19196.2305
2023-05-05T05:43:10.923Z,19197.7695
2023-05-05T05:44:12.522Z,19201.6152
2023-05-05T05:45:14.094Z,19184.7695
2023-05-05T05:46:15.886Z,19187.5391
2023-05-05T05:47:17.500Z,19185.5391
2023-05-05T05:48:20.104Z,19189.3848
2023-05-05T05:49:20.598Z,19193.4609
2023-05-05T05:50:22.673Z,19193.2305
2023-05-05T05:51:24.267Z,19182.4609
2023-05-05T05:52:25.978Z,19181.1543
2023-05-05T05:53:28.665Z,19179.3848
2023-05-05T05:54:29.666Z,19179.3086
2023-05-05T05:55:30.492Z,19191.4609
2023-05-05T05:56:32.215Z,19195.4609
2023-05-05T05:57:34.167Z,19190.0762
2023-05-05T05:58:35.413Z,19175.3086
2023-05-05T05:59:37.121Z,19171.9238
2023-05-05T06:00:38.950Z,19171.4609
2023-05-05T06:01:40.445Z,19177.4609
2023-05-05T06:02:42.296Z,19186.0000
2023-05-05T06:03:43.712Z,19174.8457
2023-05-05T06:04:45.285Z,19168.0762
2023-05-05T06:05:46.886Z,19168.6914
2023-05-05T06:06:48.675Z,19162.4609
2023-05-05T06:07:50.229Z,19156.5391
2023-05-05T06:08:51.877Z,19155.1543
2023-05-05T06:09:53.503Z,19158.0000
2023-05-05T06:10:55.272Z,19164.2305
2023-05-05T06:11:56.831Z,19164.6914
2023-05-05T06:12:58.578Z,19153.3848
2023-05-05T06:14:00.071Z,19149.6152
2023-05-05T06:15:01.727Z,19143.4609
2023-05-05T06:16:03.395Z,19144.3086
2023-05-05T06:17:05.085Z,19141.2305
2023-05-05T06:18:06.702Z,19136.2305
2023-05-05T06:19:08.349Z,19131.3086
2023-05-05T06:20:10.058Z,19125.0000
2023-05-05T06:21:11.630Z,19121.6152
2023-05-05T06:22:13.348Z,19122.4609
2023-05-05T06:23:14.886Z,19121.0000
2023-05-05T06:24:16.474Z,19124.6914
2023-05-05T06:25:18.180Z,19122.0762
2023-05-05T06:26:19.818Z,19124.3848
2023-05-05T06:27:21.446Z,19115.9238
2023-05-05T06:28:23.612Z,19109.8457
2023-05-05T06:29:24.694Z,19107.3848
2023-05-05T06:30:26.413Z,19102.6914
2023-05-05T06:31:27.996Z,19099.5391
2023-05-05T06:32:30.164Z,19108.3848
2023-05-05T06:33:31.328Z,19118.7695
2023-05-05T06:34:32.970Z,19122.0762
2023-05-05T06:35:34.596Z,19122.6914
2023-05-05T06:36:36.306Z,19116.5391
2023-05-05T06:37:37.868Z,19114.9238
2023-05-05T06:38:39.571Z,19100.8457
2023-05-05T06:39:41.135Z,19092.3086
2023-05-05T06:40:42.841Z,19099.3086
2023-05-05T06:41:44.478Z,19116.6914
2023-05-05T06:42:46.160Z,19123.5391
2023-05-05T06:43:48.097Z,19112.3848
2023-05-05T06:44:49.469Z,19105.8457
2023-05-05T06:45:50.950Z,19101.4609
2023-05-05T06:46:52.731Z,19089.6152
2023-05-05T06:47:54.295Z,19084.3086
2023-05-05T06:48:56.118Z,19105.0000
2023-05-05T06:49:57.502Z,19116.9238
2023-05-05T06:50:59.201Z,19113.2305
2023-05-05T06:52:00.799Z,19102.9238
2023-05-05T06:53:02.481Z,19090.6152
2023-05-05T06:54:04.152Z,19090.3086
2023-05-05T06:55:05.742Z,19081.0000
2023-05-05T06:56:07.405Z,19103.3086
2023-05-05T06:57:09.054Z,19116.4609
2023-05-05T06:58:11.600Z,19107.6914
2023-05-05T06:59:12.308Z,19093.9238
2023-05-05T07:00:13.898Z,19090.6914
2023-05-05T07:01:15.720Z,19085.4609
2023-05-05T07:02:17.211Z,19080.0762
2023-05-05T07:03:18.914Z,19102.5391
2023-05-05T07:04:20.561Z,19107.4609
2023-05-05T07:05:22.244Z,19094.4609
2023-05-05T07:06:23.765Z,19089.3848
2023-05-05T07:07:25.451Z,19086.3848
2023-05-05T07:08:27.066Z,19082.6152
2023-05-05T07:09:28.743Z,19097.9238
2023-05-05T07:10:30.356Z,19099.9238
2023-05-05T07:11:31.956Z,19092.1543
2023-05-05T07:12:33.668Z,19080.5391
2023-05-05T07:13:35.249Z,19072.3086
2023-05-05T07:14:37.019Z,19079.8457
2023-05-05T07:15:38.684Z,19090.2305
2023-05-05T07:16:40.337Z,19077.5391
2023-05-05T07:17:41.879Z,19069.3848
2023-05-05T07:18:43.586Z,19059.6914
2023-05-05T07:19:45.248Z,19056.1543
2023-05-05T07:20:46.965Z,19064.5391
2023-05-05T07:21:48.437Z,19071.5391
2023-05-05T07:22:50.107Z,19064.1543
2023-05-05T07:23:52.091Z,19057.7695
2023-05-05T07:24:53.462Z,19055.0000
2023-05-05T07:25:54.998Z,19070.1543
2023-05-05T07:26:56.644Z,19076.4609
2023-05-05T07:27:58.272Z,19068.7695
2023-05-05T07:29:00.008Z,19056.8457
2023-05-05T07:30:02.073Z,19051.8457
2023-05-05T07:31:03.263Z,19064.0000
2023-05-05T07:32:04.921Z,19075.1543
2023-05-05T07:33:06.554Z,19062.0762
2023-05-05T07:34:08.519Z,19050.3848
2023-05-05T07:35:09.789Z,19044.6914
2023-05-05T07:36:11.519Z,19053.1543
2023-05-05T07:37:13.104Z,19062.9238
2023-05-05T07:38:15.602Z,19055.6152
2023-05-05T07:39:17.127Z,19047.2305
2023-05-05T07:40:18.095Z,19052.5391
2023-05-05T07:41:19.651Z,19059.3086
2023-05-05T07:42:21.422Z,19066.2305
2023-05-05T07:43:23.015Z,19061.9238
2023-05-05T07:44:24.658Z,19052.1543
2023-05-05T07:45:26.268Z,19052.8457
2023-05-05T07:46:28.016Z,19065.6152
2023-05-05T07:47:29.587Z,19063.0762
2023-05-05T07:48:31.193Z,19047.7695
2023-05-05T07:49:32.811Z,19041.4609
2023-05-05T07:50:34.505Z,19053.0000
2023-05-05T07:51:36.051Z,19066.1543
2023-05-05T07:52:45.313Z,19067.4609
2023-05-05T07:53:39.304Z,19052.5391
2023-05-05T07:54:40.960Z,19038.0000
2023-05-05T07:55:43.033Z,19042.4609
2023-05-05T07:56:44.569Z,19056.9238
2023-05-05T07:57:45.963Z,19061.6152
2023-05-05T07:58:48.488Z,19053.9238
2023-05-05T07:59:49.226Z,19042.6152
2023-05-05T08:00:50.999Z,19044.1543
2023-05-05T08:01:54.791Z,19047.9238
2023-05-05T08:02:54.322Z,19054.0762
2023-05-05T08:03:55.995Z,19060.6152
2023-05-05T08:04:57.596Z,19043.0762
2023-05-05T08:05:59.305Z,19041.3848
2023-05-05T08:07:00.877Z,19047.8457
2023-05-05T08:08:02.567Z,19054.4609
2023-05-05T08:09:04.159Z,19054.6152
2023-05-05T08:10:05.832Z,19040.2305
2023-05-05T08:11:07.479Z,19032.3086
2023-05-05T08:12:09.896Z,19044.2305
2023-05-05T08:13:10.632Z,19051.8457
2023-05-05T08:14:12.278Z,19054.2305
2023-05-05T08:15:13.924Z,19040.7695
2023-05-05T08:16:15.583Z,19029.6152
2023-05-05T08:17:18.144Z,19042.6914
2023-05-05T08:18:18.861Z,19049.6152
2023-05-05T08:19:28.600Z,19038.0000
2023-05-05T08:20:22.148Z,19025.1543
2023-05-05T08:21:23.793Z,19037.1543
2023-05-05T08:22:25.421Z,19045.0000
2023-05-05T08:23:27.048Z,19051.6152
2023-05-05T08:24:28.640Z,19034.6152
2023-05-05T08:25:30.283Z,19025.3848
2023-05-05T08:26:31.933Z,19035.8457
2023-05-05T08:27:33.625Z,19043.6152
2023-05-05T08:28:35.307Z,19040.3848
2023-05-05T08:29:36.827Z,19028.1543
2023-05-05T08:30:38.434Z,19034.5391
2023-05-05T08:31:40.320Z,19045.6152
2023-05-05T08:32:41.871Z,19046.0762
2023-05-05T08:33:43.450Z,19034.3848
2023-05-05T08:34:45.014Z,19019.8457
2023-05-05T08:35:46.706Z,19028.4609
2023-05-05T08:36:48.360Z,19041.3086
2023-05-05T08:37:49.964Z,19044.0762
2023-05-05T08:38:51.593Z,19032.6152
2023-05-05T08:39:53.202Z,19019.6914
2023-05-05T08:40:54.953Z,19030.6914
2023-05-05T08:41:56.590Z,19040.3848
2023-05-05T08:42:58.230Z,19039.5391
2023-05-05T08:43:59.779Z,19025.9238
2023-05-05T08:45:01.425Z,19027.4609
2023-05-05T08:46:03.163Z,19031.6914
2023-05-05T08:47:04.864Z,19038.1543
2023-05-05T08:48:06.460Z,19040.7695
2023-05-05T08:49:08.087Z,19025.3848
2023-05-05T08:50:09.681Z,19025.8457
2023-05-05T08:51:11.256Z,19029.9238
2023-05-05T08:52:13.024Z,19029.9238
2023-05-05T08:53:14.600Z,19026.3086
2023-05-05T08:54:16.222Z,19021.8457
2023-05-05T08:55:17.942Z,19025.6152
2023-05-05T08:56:19.467Z,19031.6152
2023-05-05T08:57:21.185Z,19037.0762
2023-05-05T08:58:23.015Z,19034.3848
2023-05-05T08:59:24.403Z,19031.6914
2023-05-05T09:00:26.095Z,19035.7695
2023-05-05T09:01:27.710Z,19039.9238
2023-05-05T09:02:29.474Z,19030.6914
2023-05-05T09:03:31.065Z,19034.8457
2023-05-05T09:04:32.656Z,19033.6914
2023-05-05T09:05:34.253Z,19024.4609
2023-05-05T09:06:35.924Z,19016.6914
2023-05-05T09:07:37.554Z,19022.0000
2023-05-05T09:08:39.233Z,19032.8457
2023-05-05T09:09:40.818Z,19031.4609
2023-05-05T09:10:42.495Z,19022.0000
2023-05-05T09:11:44.147Z,19016.3086
2023-05-05T09:12:45.818Z,19019.6914
2023-05-05T09:13:48.001Z,19023.7695
2023-05-05T09:14:49.109Z,19026.2305
2023-05-05T09:15:50.685Z,19017.0000
2023-05-05T09:16:52.265Z,19020.4609
2023-05-05T09:17:53.982Z,19025.0762
2023-05-05T09:18:55.673Z,19029.8457
2023-05-05T09:19:57.361Z,19027.3086
2023-05-05T09:20:59.573Z,19021.7695
2023-05-05T09:22:00.550Z,19025.6914
2023-05-05T09:23:02.204Z,19028.5391
2023-05-05T09:24:08.216Z,19030.0000
2023-05-05T09:25:05.682Z,19024.9238
2023-05-05T09:26:07.072Z,19025.9238
2023-05-05T09:27:08.785Z,19034.6152
2023-05-05T09:28:10.428Z,19030.1543
2023-05-05T09:29:12.079Z,19026.9238
2023-05-05T09:30:13.719Z,19031.1543
2023-05-05T09:31:15.445Z,19034.6914
2023-05-05T09:32:16.992Z,19034.6152
2023-05-05T09:33:18.623Z,19025.0762
2023-05-05T09:34:20.342Z,19033.6914
2023-05-05T09:35:22.039Z,19038.3086
2023-05-05T09:36:24.233Z,19030.1543
2023-05-05T09:37:25.216Z,19026.6914
2023-05-05T09:38:26.789Z,19030.3086
2023-05-05T09:39:28.548Z,19037.2305
2023-05-05T09:40:30.138Z,19040.0000
2023-05-05T09:41:31.731Z,19030.0000
2023-05-05T09:42:33.407Z,19029.4609
2023-05-05T09:43:35.096Z,19037.2305
2023-05-05T09:44:36.736Z,19040.9238
2023-05-05T09:45:38.722Z,19033.7695
2023-05-05T09:46:40.049Z,19027.9238
2023-05-05T09:47:41.612Z,19035.3848
2023-05-05T09:48:43.271Z,19040.0000
2023-05-05T09:49:45.688Z,19039.2305
2023-05-05T09:50:46.667Z,19027.5391
2023-05-05T09:51:49.010Z,19033.0000
2023-05-05T09:52:49.807Z,19042.8457
2023-05-05T09:53:51.537Z,19044.6914
2023-05-05T09:54:53.117Z,19036.4609
2023-05-05T09:55:54.835Z,19035.7695
2023-05-05T09:56:56.585Z,19042.3848
2023-05-05T09:57:58.084Z,19046.3086
2023-05-05T09:58:59.678Z,19040.3086
2023-05-05T10:00:01.366Z,19035.9238
2023-05-05T10:01:03.036Z,19034.6152
2023-05-05T10:02:04.709Z,19037.3086
2023-05-05T10:03:06.330Z,19037.3848
2023-05-05T10:04:07.881Z,19027.1543
2023-05-05T10:05:09.551Z,19033.7695
2023-05-05T10:06:11.241Z,19044.1543
2023-05-05T10:07:12.808Z,19040.3086
2023-05-05T10:08:14.454Z,19029.6152
2023-05-05T10:09:16.127Z,19031.2305
2023-05-05T10:10:17.786Z,19035.5391
2023-05-05T10:11:19.393Z,19040.8457
2023-05-05T10:12:20.974Z,19038.0762
2023-05-05T10:13:22.741Z,19032.0000
2023-05-05T10:14:24.260Z,19038.3848
2023-05-05T10:15:25.989Z,19043.6152
2023-05-05T10:16:29.077Z,19039.9238
2023-05-05T10:17:29.352Z,19025.0762
2023-05-05T10:18:30.883Z,19036.7695
2023-05-05T10:19:32.507Z,19039.6152
2023-05-05T10:20:34.260Z,19040.8457
2023-05-05T10:21:36.297Z,19033.2305
2023-05-05T10:22:37.497Z,19027.3086
2023-05-05T10:23:39.090Z,19035.0762
2023-05-05T10:24:40.696Z,19038.7695
2023-05-05T10:25:42.375Z,19038.4609
2023-05-05T10:26:44.089Z,19024.8457
2023-05-05T10:27:45.659Z,19029.8457
2023-05-05T10:28:47.251Z,19037.8457
2023-05-05T10:29:48.949Z,19032.9238
2023-05-05T10:30:50.604Z,19029.4609
2023-05-05T10:31:54.380Z,19031.2305
2023-05-05T10:33:04.034Z,19034.2305
2023-05-05T10:33:55.730Z,19038.7695
2023-05-05T10:34:57.163Z,19027.9238
2023-05-05T10:35:58.874Z,19030.6914
2023-05-05T10:37:00.376Z,19033.2305
2023-05-05T10:38:02.178Z,19037.1543
2023-05-05T10:39:03.612Z,19031.8457
2023-05-05T10:40:05.464Z,19028.6152
2023-05-05T10:41:06.958Z,19034.8457
2023-05-05T10:42:08.622Z,19037.6914
2023-05-05T10:43:10.263Z,19032.5391
2023-05-05T10:44:11.842Z,19028.0000
2023-05-05T10:45:13.484Z,19033.7695
2023-05-05T10:46:15.215Z,19038.5391
2023-05-05T10:47:16.818Z,19031.4609
2023-05-05T10:48:18.441Z,19032.7695
2023-05-05T10:49:20.068Z,19033.3848
2023-05-05T10:50:21.703Z,19039.0000
2023-05-05T10:51:38.640Z,19035.6914
2023-05-05T10:52:25.109Z,19027.0840
2023-05-05T10:53:26.642Z,19032.3086
2023-05-05T10:54:28.345Z,19040.4609
2023-05-05T10:55:29.912Z,19042.8457
2023-05-05T10:56:31.656Z,19028.7695
2023-05-05T10:57:33.704Z,19029.0762
2023-05-05T10:58:43.685Z,19039.7695
2023-05-05T10:59:36.528Z,19041.0762
2023-05-05T11:00:38.240Z,19035.3848
2023-05-05T11:01:39.863Z,19031.6152
2023-05-05T11:02:41.712Z,19035.9238
2023-05-05T11:03:43.040Z,19039.7695
2023-05-05T11:04:44.670Z,19030.5391
2023-05-05T11:05:46.354Z,19030.3848
2023-05-05T11:06:48.041Z,19035.3086
2023-05-05T11:07:50.194Z,19035.6152
2023-05-05T11:08:51.247Z,19026.1543
2023-05-05T11:09:52.927Z,19034.7695
2023-05-05T11:10:55.116Z,19036.6152
2023-05-05T11:11:56.315Z,19038.3848
2023-05-05T11:12:57.999Z,19030.4609
2023-05-05T11:13:59.544Z,19033.5391
2023-05-05T11:15:01.138Z,19040.3086
2023-05-05T11:16:02.749Z,19047.0000
2023-05-05T11:17:04.468Z,19039.9238
2023-05-05T11:18:07.845Z,19029.3848
2023-05-05T11:19:07.762Z,19034.5391
2023-05-05T11:20:09.650Z,19041.9238
2023-05-05T11:21:11.062Z,19043.7695
2023-05-05T11:22:13.245Z,19038.1543
2023-05-05T11:23:16.607Z,19034.8457